Airfield :
LOGIN :

Register | Disclaimer

   EN    FR    IT 

 










Legend :    VFR   Marginal VFR   IFR   Intensive IFR   Very Intensive IFR
Visi :
Ceiling :
>= 8 km
>= 3000ft
5 to 8 km
1000 to 3000 ft
1500m to 5 km
500 to 1000 ft
800 to 1500m
200 to 500 ft
< 800m
< 200 ft
Symbols :   Thunderstorms  Fog  Heavy snow  Heavy precipitations  Wind > 20 kt
SIGMETs :     Misc.  Thunderstorms  Icing  Turbulence  Mountain Waves  Volcanic Ashes






- Airport Elevation : 464 ft
- IATA code : EVX


LFOE - Evreux

CURRENT METAR :
  • 270100Z AUTO 31013G24KT 280V340 9999 OVC018 11/08 Q1009 NOSIG

EXPIRED METARs :
  • 270030Z AUTO 31012KT 280V340 9999 BKN016 OVC022 11/08 Q1009 BECMG 32015G25KT
  • 270000Z AUTO 30013KT 9999 BKN017 BKN023 BKN032 10/08 Q1009 BECMG 32015G25KT
  • 262330Z AUTO 30013KT 9999 BKN019 OVC024 11/08 Q1009 BECMG 32015G25KT
  • 262300Z AUTO 30012KT 9999 OVC024 11/08 Q1009 BECMG 32015G25KT
  • 262230Z AUTO 30012KT 9999 FEW019 BKN024 BKN029 11/08 Q1009 BECMG 32015G25KT

TAF TAF LFOE
Valid from the 26 at 21:00 until the 27 at 21:00 UTC


262000Z 2621/2721 32015G25KT 8000 -RA BKN017
BECMG 2707/2709 4000 -RA BKN014
TEMPO 2709/2716 32020G30KT 3000 RA OVC008



MET'MAP, your aeronautical weather chart ! - Copyright ORBIFLY December 2007 - Disclaimer

ORBIFLY MET'MAP TEAM :

Programming & Development : Alexandra Zaïnal
Concept & original design : Baudouin d'Aumeries
Assistance for programming : Marc-Olivier Méhu
Technical & hardware support : Manuel Goepfert

Contact : metmap@orbifly.com




SOURCES & CREDITS :

   NOAA